登录
首页 » matlab » BSOcodeV1

BSOcodeV1

于 2019-08-17 发布
0 231
下载积分: 1 下载次数: 13

代码说明:

说明:  利用头脑风暴算法,求解cec——2017 benchmark,是史玉回老师的源代码进行的修改(brain storm algorithm)

文件列表:

BSOcodeV1, 0 , 2019-07-22
BSOcodeV1\bso.xls, 11181568 , 2019-07-17
BSOcodeV1\bso2.m, 6258 , 2019-07-14
BSOcodeV1\cec17_func.cpp, 41819 , 2019-01-17
BSOcodeV1\cec17_func.mexw64, 51712 , 2019-07-17
BSOcodeV1\input_data, 0 , 2019-01-17
BSOcodeV1\input_data\M_10_D10.txt, 2520 , 2016-09-04
BSOcodeV1\input_data\M_10_D100.txt, 250200 , 2016-09-04
BSOcodeV1\input_data\M_10_D2.txt, 104 , 2016-09-04
BSOcodeV1\input_data\M_10_D20.txt, 10040 , 2016-09-04
BSOcodeV1\input_data\M_10_D30.txt, 22560 , 2016-09-04
BSOcodeV1\input_data\M_10_D50.txt, 62600 , 2016-09-04
BSOcodeV1\input_data\M_11_D10.txt, 2520 , 2016-09-04
BSOcodeV1\input_data\M_11_D100.txt, 250200 , 2016-09-04
BSOcodeV1\input_data\M_11_D30.txt, 22560 , 2016-09-04
BSOcodeV1\input_data\M_11_D50.txt, 62600 , 2016-09-04
BSOcodeV1\input_data\M_12_D10.txt, 2520 , 2016-09-04
BSOcodeV1\input_data\M_12_D100.txt, 250200 , 2016-09-04
BSOcodeV1\input_data\M_12_D30.txt, 22560 , 2016-09-04
BSOcodeV1\input_data\M_12_D50.txt, 62600 , 2016-09-04
BSOcodeV1\input_data\M_13_D10.txt, 2520 , 2016-09-04
BSOcodeV1\input_data\M_13_D100.txt, 250200 , 2016-09-04
BSOcodeV1\input_data\M_13_D30.txt, 22560 , 2016-09-04
BSOcodeV1\input_data\M_13_D50.txt, 62600 , 2016-09-04
BSOcodeV1\input_data\M_14_D10.txt, 2520 , 2016-09-04
BSOcodeV1\input_data\M_14_D100.txt, 250200 , 2016-09-04
BSOcodeV1\input_data\M_14_D30.txt, 22560 , 2016-09-04
BSOcodeV1\input_data\M_14_D50.txt, 62600 , 2016-09-04
BSOcodeV1\input_data\M_15_D10.txt, 2520 , 2016-09-04
BSOcodeV1\input_data\M_15_D100.txt, 250200 , 2016-09-04
BSOcodeV1\input_data\M_15_D30.txt, 22560 , 2016-09-04
BSOcodeV1\input_data\M_15_D50.txt, 62600 , 2016-09-04
BSOcodeV1\input_data\M_16_D10.txt, 2520 , 2016-09-04
BSOcodeV1\input_data\M_16_D100.txt, 250200 , 2016-09-04
BSOcodeV1\input_data\M_16_D30.txt, 22560 , 2016-09-04
BSOcodeV1\input_data\M_16_D50.txt, 62600 , 2016-09-04
BSOcodeV1\input_data\M_17_D10.txt, 2520 , 2016-09-04
BSOcodeV1\input_data\M_17_D100.txt, 250200 , 2016-09-04
BSOcodeV1\input_data\M_17_D30.txt, 22560 , 2016-09-04
BSOcodeV1\input_data\M_17_D50.txt, 62600 , 2016-09-04
BSOcodeV1\input_data\M_18_D10.txt, 2520 , 2016-09-04
BSOcodeV1\input_data\M_18_D100.txt, 250200 , 2016-09-04
BSOcodeV1\input_data\M_18_D30.txt, 22560 , 2016-09-04
BSOcodeV1\input_data\M_18_D50.txt, 62600 , 2016-09-04
BSOcodeV1\input_data\M_19_D10.txt, 2520 , 2016-09-04
BSOcodeV1\input_data\M_19_D100.txt, 250200 , 2016-09-04
BSOcodeV1\input_data\M_19_D30.txt, 22560 , 2016-09-04
BSOcodeV1\input_data\M_19_D50.txt, 62600 , 2016-09-04
BSOcodeV1\input_data\M_1_D10.txt, 2520 , 2016-09-04
BSOcodeV1\input_data\M_1_D100.txt, 250200 , 2016-09-04
BSOcodeV1\input_data\M_1_D2.txt, 104 , 2016-09-04
BSOcodeV1\input_data\M_1_D20.txt, 10040 , 2016-09-04
BSOcodeV1\input_data\M_1_D30.txt, 22560 , 2016-09-04
BSOcodeV1\input_data\M_1_D50.txt, 62600 , 2016-09-04
BSOcodeV1\input_data\M_20_D10.txt, 2520 , 2016-09-04
BSOcodeV1\input_data\M_20_D100.txt, 250200 , 2016-09-09
BSOcodeV1\input_data\M_20_D20.txt, 10040 , 2016-09-04
BSOcodeV1\input_data\M_20_D30.txt, 22560 , 2016-09-04
BSOcodeV1\input_data\M_20_D50.txt, 62600 , 2016-09-04
BSOcodeV1\input_data\M_21_D10.txt, 25200 , 2016-09-04
BSOcodeV1\input_data\M_21_D100.txt, 2502000 , 2016-09-04
BSOcodeV1\input_data\M_21_D2.txt, 832 , 2016-09-04
BSOcodeV1\input_data\M_21_D20.txt, 100400 , 2016-09-04
BSOcodeV1\input_data\M_21_D30.txt, 225600 , 2016-09-04
BSOcodeV1\input_data\M_21_D50.txt, 626000 , 2016-09-04
BSOcodeV1\input_data\M_22_D10.txt, 25200 , 2016-09-04
BSOcodeV1\input_data\M_22_D100.txt, 2502000 , 2016-09-04
BSOcodeV1\input_data\M_22_D2.txt, 832 , 2016-09-04
BSOcodeV1\input_data\M_22_D20.txt, 100400 , 2016-09-04
BSOcodeV1\input_data\M_22_D30.txt, 225600 , 2016-09-04
BSOcodeV1\input_data\M_22_D50.txt, 626000 , 2016-09-04
BSOcodeV1\input_data\M_23_D10.txt, 25200 , 2016-09-04
BSOcodeV1\input_data\M_23_D100.txt, 2502000 , 2016-09-04
BSOcodeV1\input_data\M_23_D2.txt, 832 , 2016-09-04
BSOcodeV1\input_data\M_23_D20.txt, 100400 , 2016-09-04
BSOcodeV1\input_data\M_23_D30.txt, 225600 , 2016-09-04
BSOcodeV1\input_data\M_23_D50.txt, 626000 , 2016-09-04
BSOcodeV1\input_data\M_24_D10.txt, 25200 , 2016-09-04
BSOcodeV1\input_data\M_24_D100.txt, 2502000 , 2016-09-04
BSOcodeV1\input_data\M_24_D2.txt, 832 , 2016-09-04
BSOcodeV1\input_data\M_24_D20.txt, 100400 , 2016-09-04
BSOcodeV1\input_data\M_24_D30.txt, 225600 , 2016-09-04
BSOcodeV1\input_data\M_24_D50.txt, 626000 , 2016-09-04
BSOcodeV1\input_data\M_25_D10.txt, 25200 , 2016-09-04
BSOcodeV1\input_data\M_25_D100.txt, 2502000 , 2016-09-04
BSOcodeV1\input_data\M_25_D2.txt, 832 , 2016-09-04
BSOcodeV1\input_data\M_25_D20.txt, 100400 , 2016-09-04
BSOcodeV1\input_data\M_25_D30.txt, 225600 , 2016-09-04
BSOcodeV1\input_data\M_25_D50.txt, 626000 , 2016-09-04
BSOcodeV1\input_data\M_26_D10.txt, 25200 , 2016-09-04
BSOcodeV1\input_data\M_26_D100.txt, 2502000 , 2016-09-04
BSOcodeV1\input_data\M_26_D2.txt, 832 , 2016-09-04
BSOcodeV1\input_data\M_26_D20.txt, 100400 , 2016-09-04
BSOcodeV1\input_data\M_26_D30.txt, 225600 , 2016-09-04
BSOcodeV1\input_data\M_26_D50.txt, 626000 , 2016-09-04
BSOcodeV1\input_data\M_27_D10.txt, 25200 , 2016-09-04
BSOcodeV1\input_data\M_27_D100.txt, 2502000 , 2016-09-04
BSOcodeV1\input_data\M_27_D2.txt, 832 , 2016-09-04
BSOcodeV1\input_data\M_27_D20.txt, 100400 , 2016-09-04
BSOcodeV1\input_data\M_27_D30.txt, 225600 , 2016-09-04

下载说明:请别用迅雷下载,失败请重下,重下不扣分!

发表评论

0 个回复

  • code-updated
    matlab code for image distortion
    2015-03-21 21:16:48下载
    积分:1
  • CAR
    CAR模型MATLAB程序,考虑带时变参数的CAR模型,用遗忘因子RLS估计参数(CAR MODEL PROGRAMME)
    2013-05-15 16:41:48下载
    积分:1
  • Dstatcom
    DSTSTCOM DESIGN , USING CURRENT SOURCE CONVERTER IN MATLAB
    2010-12-04 13:51:24下载
    积分:1
  • MSE
    稳健的自适应波束形成算法,常用mse准则算法(Robust adaptive beamforming algorithm, commonly used criterion algorithm mse)
    2014-10-29 14:54:54下载
    积分:1
  • Modul_5_audio
    quantization simulation for audio file, mulaw and uniform
    2014-11-28 17:07:19下载
    积分:1
  • Multiband_Kamath
    Kamath于2002年提出的多频带谱减法 联合开发网 - pudn.com
    2013-11-28 17:30:13下载
    积分:1
  • Improved_bp_algorithm
    一个改进的bp算法,很经典,很实用,希望大家喜欢!(An improved algorithm for bp, very classic, very useful, I hope everyone likes!)
    2009-09-23 08:37:06下载
    积分:1
  • RLS_MATLAB
    lms基本算法有利于广大学生学习。 lms基本算法有利于广大学生学习。(LMS algorithm is conducive to the broad masses of the basic learning. LMS algorithm is conducive to the broad masses of the basic learning.)
    2008-03-06 18:45:34下载
    积分:1
  • PV_System
    Incremental Conductance: In the incremental conductance algorithm, we find the derivative of PV output power with respect to output voltage. The dP/dV is evaluated and the algorithm keeps checking this value and changes the duty cycle such that dP/dV=- I/V = 0. This is the point at which maximum power is transferred. If dP/dV is greater than zero, it means the PV is operating to the left of the MPP. If dP/dV is less than zero, it means the PV is operating to the right of the MPP. This method holds an advantage over the perturb and observe method since it is fast and does not oscillate around MPP. However, the method could experience instability due the involvement of the derivative.
    2013-01-08 08:57:53下载
    积分:1
  • MUSIC.zhenyuan
    实现阵列信号处理MUSIC算法中对比不同阵元数对算法的分辨率的影响。(MUSIC realize array signal processing algorithms compare the effects of different number of array elements resolution algorithm.)
    2014-09-22 11:37:16下载
    积分:1
  • 696516资源总数
  • 106914会员总数
  • 0今日下载